Time;durP1;ratioP1;P1;durP2;ratioP2;P2;SDS_P1;SDS_P2;PMS_P1;PMS_P2;Temp;Humidity;BMP_temperature;BMP_pressure;BME280_temperature;BME280_humidity;BME280_pressure;Samples;Min_cycle;Max_cycle;Signal;HPM_P1;HPM_P2
2023/03/27 00:01:53;;;;;;;6.68;1.38;;;4.60;99.90;;;;;;5112534;28;20024;-72
2023/03/27 00:04:20;;;;;;;5.03;1.73;;;4.50;99.90;;;;;;5099644;28;20134;-75
2023/03/27 00:06:47;;;;;;;6.47;1.30;;;4.50;99.90;;;;;;5084587;28;20040;-73
2023/03/27 00:09:15;;;;;;;4.25;1.20;;;4.50;99.90;;;;;;5100412;28;20378;-75
2023/03/27 00:11:42;;;;;;;7.40;1.40;;;4.60;99.90;;;;;;5079310;28;20031;-73
2023/03/27 00:14:08;;;;;;;3.25;0.98;;;4.60;99.90;;;;;;5094101;28;20111;-74
2023/03/27 00:16:34;;;;;;;5.65;1.30;;;4.60;99.90;;;;;;5076888;28;20380;-73
2023/03/27 00:19:00;;;;;;;7.25;1.30;;;4.80;99.90;;;;;;5067408;28;20051;-72
2023/03/27 00:21:28;;;;;;;5.38;1.23;;;4.40;99.90;;;;;;5080023;28;20039;-74
2023/03/27 00:23:55;;;;;;;4.15;1.20;;;4.30;99.90;;;;;;5081722;28;20040;-76
2023/03/27 00:26:21;;;;;;;3.80;1.50;;;5.70;99.90;;;;;;5097374;28;20083;-73
2023/03/27 00:28:47;;;;;;;6.00;1.25;;;4.40;99.90;;;;;;5077310;28;20376;-73
2023/03/27 00:31:14;;;;;;;2.83;1.33;;;4.50;99.90;;;;;;5099272;28;20028;-74
2023/03/27 00:33:40;;;;;;;3.92;1.33;;;4.40;99.90;;;;;;5083112;28;20158;-72
2023/03/27 00:36:08;;;;;;;3.63;1.17;;;4.40;99.90;;;;;;5130188;27;20036;-73
2023/03/27 00:38:34;;;;;;;6.30;1.38;;;4.30;99.90;;;;;;5128692;27;20044;-75
2023/03/27 00:41:00;;;;;;;2.75;1.30;;;4.50;99.90;;;;;;5065427;28;20067;-73
2023/03/27 00:43:32;;;;;;;5.93;1.40;;;4.40;99.90;;;;;;5082926;28;20218;-74
2023/03/27 00:46:05;;;;;;;7.30;1.10;;;4.50;99.90;;;;;;5095125;28;20461;-72
2023/03/27 00:48:34;;;;;;;4.97;2.17;;;4.60;99.90;;;;;;5094703;28;20047;-73
2023/03/27 00:51:00;;;;;;;6.78;1.25;;;4.90;99.90;;;;;;5099924;28;20208;-75
2023/03/27 00:53:28;;;;;;;6.32;0.90;;;4.80;99.90;;;;;;5080491;28;20039;-72
2023/03/27 00:56:20;;;;;;;7.53;1.30;;;4.70;99.90;;;;;;5089423;28;20035;-74
2023/03/27 00:59:07;;;;;;;5.95;1.48;;;4.60;99.90;;;;;;5113807;27;20050;-71
2023/03/27 01:01:33;;;;;;;7.22;1.83;;;4.70;99.90;;;;;;5099379;28;20343;-74
2023/03/27 01:04:05;;;;;;;9.35;1.60;;;4.60;99.90;;;;;;5094243;28;20023;-74
2023/03/27 01:06:31;;;;;;;4.20;0.80;;;4.80;99.90;;;;;;5092784;28;20044;-71
2023/03/27 01:08:57;;;;;;;5.38;1.35;;;4.60;99.90;;;;;;5080634;28;20042;-73
2023/03/27 01:11:44;;;;;;;5.18;1.17;;;4.60;99.90;;;;;;5098091;28;20055;-72
2023/03/27 01:14:13;;;;;;;5.13;1.30;;;4.80;99.90;;;;;;5079221;28;20082;-70
2023/03/27 01:17:08;;;;;;;4.00;0.98;;;4.80;99.90;;;;;;5078725;28;20035;-73
2023/03/27 01:19:50;;;;;;;4.65;1.10;;;4.80;99.90;;;;;;5079266;28;21097;-74
2023/03/27 01:22:38;;;;;;;4.68;1.10;;;4.70;99.90;;;;;;5110022;28;20047;-73
2023/03/27 01:25:24;;;;;;;4.00;0.85;;;4.70;99.90;;;;;;5089536;28;20038;-70
2023/03/27 01:28:16;;;;;;;6.00;1.52;;;4.80;99.90;;;;;;5095902;28;20027;-71
2023/03/27 01:30:54;;;;;;;5.00;1.20;;;4.60;99.90;;;;;;5079460;28;20273;-72
2023/03/27 01:33:20;;;;;;;;;;;6.20;99.90;;;;;;5109928;28;20114;-73
2023/03/27 01:36:01;;;;;;;6.03;0.95;;;4.60;99.90;;;;;;5094455;28;19912;-73
2023/03/27 01:38:53;;;;;;;1.95;0.73;;;4.60;99.90;;;;;;5082595;28;20065;-73
2023/03/27 01:41:31;;;;;;;7.15;1.40;;;4.60;99.90;;;;;;5089029;28;20357;-73
2023/03/27 01:44:09;;;;;;;4.80;1.15;;;4.60;99.90;;;;;;5078814;28;20051;-74
2023/03/27 01:46:43;;;;;;;2.38;1.00;;;4.50;99.90;;;;;;5080357;28;20052;-71
2023/03/27 01:49:15;;;;;;;3.70;1.10;;;4.70;99.90;;;;;;5081671;28;20047;-72
2023/03/27 01:51:45;;;;;;;8.13;1.20;;;4.50;99.90;;;;;;5087204;28;20219;-71
2023/03/27 01:54:22;;;;;;;4.78;1.20;;;4.60;99.90;;;;;;5073955;28;20107;-72
2023/03/27 02:00:52;;;;;;;6.38;1.40;;;4.60;99.90;;;;;;4996983;28;20078;-71
2023/03/27 02:03:30;;;;;;;4.63;1.15;;;4.30;99.90;;;;;;4981408;28;20068;-73
2023/03/27 02:06:07;;;;;;;5.47;1.73;;;5.00;99.90;;;;;;5038852;28;20033;-74
2023/03/27 02:08:51;;;;;;;3.00;1.48;;;4.00;99.90;;;;;;5072601;28;20049;-71
2023/03/27 02:11:17;;;;;;;6.93;1.60;;;4.00;99.90;;;;;;5074899;28;20041;-74
2023/03/27 02:13:51;;;;;;;6.20;1.33;;;5.50;99.90;;;;;;5056752;28;20052;-75
2023/03/27 02:16:20;;;;;;;5.88;1.42;;;4.50;99.90;;;;;;5056655;28;20211;-72
2023/03/27 02:21:47;;;;;;;3.85;1.40;;;4.40;99.90;;;;;;5055006;28;20463;-74
2023/03/27 02:24:15;;;;;;;4.53;1.20;;;4.60;99.90;;;;;;5057402;28;20063;-76
2023/03/27 02:26:41;;;;;;;6.40;1.85;;;4.60;99.90;;;;;;5072361;28;20035;-71
2023/03/27 02:29:28;;;;;;;10.20;1.60;;;4.70;99.90;;;;;;5052161;28;20091;-72
2023/03/27 02:32:27;;;;;;;6.65;1.52;;;4.50;99.90;;;;;;5059434;28;20042;-71
2023/03/27 02:35:11;;;;;;;7.05;1.30;;;4.30;99.90;;;;;;5077242;28;20024;-73
2023/03/27 02:38:02;;;;;;;5.03;1.48;;;4.30;99.90;;;;;;5071556;28;20087;-71
2023/03/27 02:40:32;;;;;;;5.95;1.25;;;4.40;99.90;;;;;;5046974;28;20036;-72
2023/03/27 02:43:05;;;;;;;3.15;1.40;;;4.50;99.90;;;;;;5059186;28;20078;-71
2023/03/27 02:45:50;;;;;;;6.68;1.95;;;4.30;99.90;;;;;;5055153;28;20024;-71
2023/03/27 02:48:55;;;;;;;4.70;1.70;;;4.50;99.90;;;;;;5075060;28;20315;-73
2023/03/27 02:51:25;;;;;;;6.07;1.38;;;4.20;99.90;;;;;;5081066;28;21415;-74
2023/03/27 02:54:07;;;;;;;3.20;1.42;;;4.30;99.90;;;;;;5081642;28;20032;-70
2023/03/27 02:56:37;;;;;;;6.80;1.42;;;4.20;99.90;;;;;;5079842;28;20058;-76
2023/03/27 02:59:23;;;;;;;5.82;1.23;;;4.20;99.90;;;;;;5079984;28;20035;-71
2023/03/27 03:01:49;;;;;;;5.47;1.67;;;4.20;99.90;;;;;;5075483;28;20077;-74
2023/03/27 03:04:34;;;;;;;4.65;1.65;;;4.50;99.90;;;;;;5061137;28;20027;-73
2023/03/27 03:07:05;;;;;;;8.57;3.22;;;4.30;99.90;;;;;;5092582;28;20029;-73
2023/03/27 03:09:31;;;;;;;8.60;1.55;;;4.20;99.90;;;;;;5095946;28;20036;-75
2023/03/27 03:11:56;;;;;;;5.82;1.25;;;4.30;99.90;;;;;;5079767;28;20288;-74
2023/03/27 03:14:27;;;;;;;3.72;1.52;;;4.30;99.90;;;;;;5081037;28;20102;-72
2023/03/27 03:16:52;;;;;;;4.57;1.48;;;4.20;99.90;;;;;;5098072;28;20032;-74
2023/03/27 03:19:22;;;;;;;4.63;1.33;;;4.40;99.90;;;;;;5080367;28;20116;-73
2023/03/27 03:21:49;;;;;;;8.27;1.50;;;4.20;99.90;;;;;;5077106;28;20319;-75
2023/03/27 03:24:16;;;;;;;7.18;1.70;;;4.50;99.90;;;;;;5110930;28;20187;-74
2023/03/27 03:26:43;;;;;;;9.85;2.00;;;4.20;99.90;;;;;;5084052;28;20051;-75
2023/03/27 03:29:10;;;;;;;8.45;1.42;;;4.50;99.90;;;;;;5085270;28;20038;-72
2023/03/27 03:31:42;;;;;;;8.70;1.90;;;4.20;99.90;;;;;;5079544;28;20067;-75
2023/03/27 03:34:15;;;;;;;8.57;2.33;;;4.50;99.90;;;;;;5101132;28;20039;-76
2023/03/27 03:36:43;;;;;;;7.00;1.63;;;4.20;99.90;;;;;;5076746;28;20110;-73
2023/03/27 03:49:56;;;;;;;6.72;1.40;;;3.80;99.90;;;;;;4847065;29;20061;-72
2023/03/27 03:52:22;;;;;;;7.57;1.60;;;4.30;99.90;;;;;;4884206;28;20052;-74
2023/03/27 03:54:47;;;;;;;7.30;1.95;;;4.50;99.90;;;;;;5025524;28;20220;-70
2023/03/27 03:57:13;;;;;;;4.80;1.38;;;4.40;99.90;;;;;;5063109;28;20074;-74
2023/03/27 03:59:39;;;;;;;6.65;1.60;;;4.30;99.90;;;;;;5074249;28;20094;-74
2023/03/27 04:02:04;;;;;;;6.65;1.38;;;4.50;99.90;;;;;;5044977;28;20204;-75
2023/03/27 04:04:30;;;;;;;6.40;1.40;;;4.20;99.90;;;;;;5046331;28;20052;-75
2023/03/27 04:06:57;;;;;;;6.47;2.58;;;4.20;99.90;;;;;;5039597;28;20036;-74
2023/03/27 04:09:23;;;;;;;3.97;1.60;;;4.00;99.90;;;;;;5044873;28;20423;-76
2023/03/27 04:11:48;;;;;;;3.17;1.63;;;3.50;99.90;;;;;;5073981;28;20089;-74
2023/03/27 04:14:14;;;;;;;10.00;2.13;;;3.70;99.90;;;;;;5054420;28;20056;-74
2023/03/27 04:16:40;;;;;;;9.77;2.35;;;3.80;99.90;;;;;;5058260;28;20098;-75
2023/03/27 04:19:06;;;;;;;4.72;1.50;;;3.40;99.90;;;;;;5063179;28;20037;-73
2023/03/27 04:21:31;;;;;;;9.00;1.88;;;4.20;99.90;;;;;;5045077;28;20286;-76
2023/03/27 04:24:01;;;;;;;4.53;1.30;;;3.80;99.90;;;;;;5060699;28;20223;-74
2023/03/27 04:26:35;;;;;;;5.93;1.88;;;3.20;99.90;;;;;;5052075;28;20090;-74
2023/03/27 04:29:09;;;;;;;8.15;1.67;;;3.70;99.90;;;;;;5055082;28;20215;-76
2023/03/27 04:31:34;;;;;;;6.78;1.80;;;3.80;99.90;;;;;;5063228;28;20055;-73
2023/03/27 04:34:01;;;;;;;9.05;2.17;;;3.60;99.90;;;;;;5055570;28;20029;-73
2023/03/27 04:36:27;;;;;;;8.63;2.10;;;3.20;99.90;;;;;;5072010;28;20024;-75
2023/03/27 04:38:53;;;;;;;6.70;1.70;;;3.30;99.90;;;;;;5080966;28;20048;-75
2023/03/27 04:41:20;;;;;;;3.72;1.60;;;3.20;99.90;;;;;;5056014;28;20099;-74
2023/03/27 04:43:45;;;;;;;10.07;1.95;;;4.40;99.90;;;;;;5046565;28;20025;-73
2023/03/27 04:46:11;;;;;;;8.80;1.88;;;3.30;99.90;;;;;;5063390;28;20031;-75
2023/03/27 04:48:39;;;;;;;7.93;1.60;;;3.90;99.90;;;;;;5062761;28;20035;-75
2023/03/27 04:51:07;;;;;;;7.45;2.55;;;4.10;99.90;;;;;;5064663;28;20280;-74
2023/03/27 04:53:36;;;;;;;4.35;1.00;;;3.60;99.90;;;;;;5075741;28;20055;-73
2023/03/27 04:56:03;;;;;;;3.80;0.70;;;4.50;99.90;;;;;;5100052;28;20099;-74
2023/03/27 04:58:28;;;;;;;4.55;1.08;;;3.70;99.90;;;;;;5099496;28;20035;-75
2023/03/27 05:00:57;;;;;;;7.13;0.88;;;4.20;99.90;;;;;;5095237;28;20028;-74
2023/03/27 05:03:22;;;;;;;7.35;1.00;;;4.00;99.90;;;;;;5079205;28;20033;-74
2023/03/27 05:05:49;;;;;;;2.33;0.63;;;4.40;99.90;;;;;;5099389;28;20023;-74
2023/03/27 05:08:15;;;;;;;1.33;0.80;;;3.60;99.90;;;;;;5061371;28;20480;-75
2023/03/27 05:10:41;;;;;;;3.28;0.80;;;4.00;99.90;;;;;;5076846;28;20036;-73
2023/03/27 05:13:07;;;;;;;2.65;1.02;;;4.00;99.90;;;;;;5076524;28;20035;-74
2023/03/27 05:15:32;;;;;;;1.30;0.80;;;4.00;99.90;;;;;;5095648;28;20342;-75
2023/03/27 05:17:59;;;;;;;3.65;0.90;;;4.30;99.90;;;;;;5081985;28;20035;-74
2023/03/27 05:20:26;;;;;;;3.80;0.80;;;4.30;99.90;;;;;;5083175;28;20024;-75
2023/03/27 05:22:53;;;;;;;1.40;0.60;;;4.00;99.90;;;;;;5074635;28;20111;-73
2023/03/27 05:25:20;;;;;;;3.33;1.00;;;4.30;99.90;;;;;;5091440;28;20356;-73
2023/03/27 05:27:46;;;;;;;1.80;1.05;;;4.00;99.90;;;;;;5097305;28;20032;-72
2023/03/27 05:30:14;;;;;;;3.75;1.35;;;4.40;99.90;;;;;;5081871;28;20028;-75
2023/03/27 05:32:52;;;;;;;3.17;0.80;;;3.90;99.90;;;;;;5093056;28;20027;-73
2023/03/27 05:35:23;;;;;;;1.70;0.95;;;4.30;99.90;;;;;;5097973;28;20027;-77
2023/03/27 05:41:06;;;;;;;5.47;0.77;;;4.30;99.90;;;;;;5087652;28;20105;-71
2023/03/27 05:43:32;;;;;;;2.35;1.00;;;2.80;99.90;;;;;;5072216;28;20272;-74
2023/03/27 05:45:58;;;;;;;1.50;0.70;;;5.40;99.90;;;;;;5062208;28;20035;-77
2023/03/27 05:48:23;;;;;;;6.18;1.45;;;4.30;99.90;;;;;;5059826;28;20038;-73
2023/03/27 05:50:49;;;;;;;2.28;0.73;;;3.90;99.90;;;;;;5043984;28;20052;-70
2023/03/27 05:53:15;;;;;;;5.80;0.90;;;3.90;99.90;;;;;;5059657;28;20052;-71
2023/03/27 05:55:40;;;;;;;3.45;0.85;;;5.30;99.90;;;;;;5038428;28;20111;-74
2023/03/27 05:58:08;;;;;;;4.90;0.90;;;4.10;99.90;;;;;;5064369;28;20040;-73
2023/03/27 06:00:35;;;;;;;7.22;1.23;;;4.00;99.90;;;;;;5059271;28;20340;-73
2023/03/27 06:03:02;;;;;;;2.75;0.73;;;4.20;99.90;;;;;;5062294;28;20032;-76
2023/03/27 06:05:28;;;;;;;2.90;0.90;;;4.10;99.90;;;;;;5063723;28;20064;-72
2023/03/27 06:08:03;;;;;;;5.78;1.08;;;3.80;99.90;;;;;;5074709;28;20036;-74
2023/03/27 06:10:33;;;;;;;7.18;1.50;;;4.20;99.90;;;;;;5050213;28;20125;-74
2023/03/27 06:13:05;;;;;;;7.90;1.20;;;4.20;99.90;;;;;;5083325;28;20393;-71
2023/03/27 06:15:52;;;;;;;5.18;1.05;;;4.40;99.90;;;;;;5077024;28;20384;-72
2023/03/27 06:18:18;;;;;;;2.67;1.30;;;4.30;99.90;;;;;;5066946;28;20047;-72
2023/03/27 06:20:44;;;;;;;5.28;0.90;;;4.20;99.90;;;;;;5089402;28;20028;-74
2023/03/27 06:23:10;;;;;;;5.63;1.30;;;4.70;99.90;;;;;;5131388;28;20245;-74
2023/03/27 06:25:37;;;;;;;4.28;1.05;;;4.90;99.90;;;;;;5089316;28;20036;-75
2023/03/27 06:28:05;;;;;;;2.53;0.68;;;4.70;99.90;;;;;;5095515;28;20089;-73
2023/03/27 06:30:31;;;;;;;3.25;0.77;;;5.00;99.90;;;;;;5080664;28;20044;-73
2023/03/27 06:32:58;;;;;;;3.78;1.05;;;5.10;99.90;;;;;;5098154;28;20059;-75
2023/03/27 06:35:26;;;;;;;3.97;0.90;;;5.00;99.90;;;;;;5098345;28;20046;-75
2023/03/27 06:37:52;;;;;;;2.92;1.00;;;5.20;99.90;;;;;;5077722;28;20085;-74
2023/03/27 06:40:22;;;;;;;3.22;1.08;;;5.10;99.90;;;;;;5070379;28;20054;-73
2023/03/27 06:42:57;;;;;;;6.63;1.63;;;5.40;99.90;;;;;;5098057;28;20055;-72
2023/03/27 06:45:28;;;;;;;3.28;1.20;;;5.00;99.90;;;;;;5082225;28;20035;-71
2023/03/27 06:47:56;;;;;;;4.70;0.95;;;4.90;99.90;;;;;;5098038;28;20226;-72
2023/03/27 06:50:29;;;;;;;6.03;1.30;;;4.90;99.90;;;;;;5081296;28;20066;-71
2023/03/27 06:52:58;;;;;;;4.60;1.20;;;6.30;99.90;;;;;;5085660;28;20062;-72
2023/03/27 06:55:26;;;;;;;4.53;1.33;;;5.30;99.90;;;;;;5083716;28;20077;-71
2023/03/27 06:57:54;;;;;;;7.15;1.80;;;5.40;99.90;;;;;;5101153;28;20077;-72
2023/03/27 07:00:24;;;;;;;7.13;1.27;;;5.60;99.90;;;;;;5103672;28;20031;-70
2023/03/27 07:03:02;;;;;;;5.32;1.08;;;5.90;99.90;;;;;;5098165;28;20032;-72
2023/03/27 07:05:32;;;;;;;7.32;1.20;;;5.90;99.90;;;;;;5085661;28;20068;-72
2023/03/27 07:07:58;;;;;;;5.13;1.38;;;6.20;99.90;;;;;;5099798;28;20533;-73
2023/03/27 07:10:25;;;;;;;7.97;1.42;;;6.30;99.90;;;;;;5101282;28;20043;-74
2023/03/27 07:12:55;;;;;;;5.07;1.65;;;6.50;99.90;;;;;;5093135;28;20028;-70
2023/03/27 07:15:22;;;;;;;8.32;1.40;;;6.80;99.90;;;;;;5088270;28;20031;-72
2023/03/27 07:17:56;;;;;;;3.55;1.00;;;6.90;99.90;;;;;;5088623;28;20102;-74
2023/03/27 07:20:23;;;;;;;5.55;1.17;;;6.50;99.90;;;;;;5072807;28;20055;-73
2023/03/27 07:22:49;;;;;;;7.10;1.40;;;5.90;99.90;;;;;;5102347;28;20596;-71
2023/03/27 07:25:15;;;;;;;5.55;1.60;;;5.90;99.90;;;;;;5088129;28;20035;-72
2023/03/27 07:27:41;;;;;;;15.30;1.40;;;5.70;99.90;;;;;;5102795;28;20220;-73
2023/03/27 07:30:10;;;;;;;5.82;1.33;;;5.60;99.90;;;;;;5071790;28;20093;-73
2023/03/27 07:32:41;;;;;;;3.15;1.00;;;5.30;99.90;;;;;;5088384;28;20032;-73
2023/03/27 07:35:10;;;;;;;3.08;1.17;;;5.30;99.90;;;;;;5081101;28;20039;-73
2023/03/27 07:37:37;;;;;;;6.15;1.13;;;5.40;99.90;;;;;;5104264;28;20069;-70
2023/03/27 07:40:08;;;;;;;5.45;1.20;;;5.70;99.90;;;;;;5083465;28;20063;-72
2023/03/27 07:42:34;;;;;;;6.88;1.20;;;5.90;99.90;;;;;;5104007;28;20031;-73
2023/03/27 07:45:01;;;;;;;3.38;1.30;;;6.20;99.90;;;;;;5094383;28;20036;-72
2023/03/27 07:47:27;;;;;;;3.05;1.00;;;6.40;99.90;;;;;;5078641;28;20045;-74
2023/03/27 07:49:56;;;;;;;2.42;0.77;;;6.50;99.90;;;;;;5087472;28;20070;-71
2023/03/27 07:52:22;;;;;;;2.22;0.73;;;6.60;99.90;;;;;;5093342;28;20055;-72
2023/03/27 07:54:47;;;;;;;2.17;0.80;;;6.00;99.90;;;;;;5100004;28;20128;-71
2023/03/27 07:57:14;;;;;;;2.97;1.02;;;5.90;99.90;;;;;;5096277;28;20024;-72
2023/03/27 07:59:40;;;;;;;2.13;1.13;;;5.80;99.90;;;;;;5084084;28;20043;-72
2023/03/27 08:02:08;;;;;;;4.38;0.90;;;6.00;99.90;;;;;;5066524;28;20032;-72
2023/03/27 08:04:35;;;;;;;2.63;0.77;;;6.40;99.90;;;;;;5099560;28;20246;-71
2023/03/27 08:07:01;;;;;;;2.55;0.90;;;6.20;99.90;;;;;;5095289;28;20086;-71
2023/03/27 08:09:27;;;;;;;5.30;1.10;;;6.10;99.90;;;;;;5074814;28;20323;-75
2023/03/27 08:11:52;;;;;;;2.38;0.73;;;6.30;99.90;;;;;;5074179;28;20246;-70
2023/03/27 08:14:18;;;;;;;2.10;1.08;;;6.50;99.90;;;;;;5090487;28;20039;-71
2023/03/27 08:16:44;;;;;;;1.73;0.82;;;6.50;99.90;;;;;;5089273;28;20078;-71
2023/03/27 08:19:10;;;;;;;2.63;1.05;;;6.50;99.90;;;;;;5071324;28;20104;-74
2023/03/27 08:21:39;;;;;;;4.80;0.90;;;6.70;99.90;;;;;;5074692;28;20032;-72
2023/03/27 08:24:06;;;;;;;3.15;0.75;;;6.70;99.90;;;;;;5086932;28;20570;-72
2023/03/27 08:26:31;;;;;;;5.35;1.00;;;7.00;99.90;;;;;;5090660;28;20028;-73
2023/03/27 08:28:58;;;;;;;4.40;0.82;;;7.00;99.90;;;;;;5090788;28;20027;-72
2023/03/27 08:31:26;;;;;;;3.85;1.20;;;6.90;99.90;;;;;;5089720;28;20062;-72
2023/03/27 08:33:52;;;;;;;4.20;1.20;;;7.10;99.90;;;;;;5090079;28;20032;-72
2023/03/27 08:36:18;;;;;;;2.33;0.90;;;7.20;99.90;;;;;;5086498;28;20024;-71
2023/03/27 08:38:45;;;;;;;2.92;1.00;;;7.20;99.90;;;;;;5085359;28;20039;-72
2023/03/27 08:41:41;;;;;;;6.07;1.38;;;7.50;99.90;;;;;;5097697;28;20020;-72
2023/03/27 08:44:13;;;;;;;7.45;1.42;;;7.80;99.90;;;;;;5094622;28;20020;-68
2023/03/27 08:46:53;;;;;;;3.35;1.30;;;7.80;99.90;;;;;;5094457;28;20028;-72
2023/03/27 08:49:21;;;;;;;5.03;1.02;;;8.10;99.90;;;;;;5130558;27;20051;-71
2023/03/27 08:51:52;;;;;;;6.05;1.20;;;7.70;99.90;;;;;;5098590;28;20059;-71
2023/03/27 08:54:29;;;;;;;2.25;0.80;;;7.40;99.90;;;;;;5088314;28;20040;-75
2023/03/27 08:57:12;;;;;;;4.47;1.25;;;7.10;99.90;;;;;;5080686;28;20034;-74
2023/03/27 08:59:38;;;;;;;4.45;1.20;;;6.90;99.90;;;;;;5074896;28;20322;-71
2023/03/27 09:02:23;;;;;;;5.13;1.42;;;6.90;99.90;;;;;;5103792;28;20043;-69
2023/03/27 09:05:01;;;;;;;5.65;0.95;;;7.30;99.90;;;;;;5062675;28;20039;-70
2023/03/27 09:07:44;;;;;;;3.80;1.20;;;7.70;99.90;;;;;;5098698;28;20051;-72
2023/03/27 09:10:14;;;;;;;3.28;1.23;;;7.80;99.90;;;;;;5077422;28;20365;-70
2023/03/27 09:13:06;;;;;;;4.78;1.02;;;7.70;99.90;;;;;;5081079;28;20191;-72
2023/03/27 09:15:50;;;;;;;;;;;7.30;99.90;;;;;;5083359;28;20404;-68
2023/03/27 09:19:17;;;;;;;2.38;0.68;;;7.10;99.90;;;;;;5080938;28;19924;-74
2023/03/27 09:21:48;;;;;;;2.22;0.70;;;7.40;99.90;;;;;;5077580;28;20044;-75
2023/03/27 09:24:42;;;;;;;2.65;0.82;;;7.90;99.90;;;;;;5088781;28;20023;-73
2023/03/27 09:27:19;;;;;;;4.57;0.70;;;8.10;91.70;;;;;;5084820;28;20044;-72
2023/03/27 09:30:18;;;;;;;5.78;0.73;;;8.30;95.10;;;;;;5077040;28;20036;-70
2023/03/27 09:32:50;;;;;;;1.15;0.45;;;8.60;99.90;;;;;;5090744;28;20261;-72
2023/03/27 09:35:19;;;;;;;2.05;0.70;;;8.40;99.90;;;;;;5096370;28;20034;-70
2023/03/27 09:41:56;;;;;;;2.30;0.60;;;8.60;99.90;;;;;;5047309;28;20078;-73
2023/03/27 09:44:31;;;;;;;2.45;0.68;;;8.40;96.00;;;;;;5079159;28;20028;-75
2023/03/27 09:47:08;;;;;;;1.10;0.68;;;8.10;93.60;;;;;;5093832;28;20315;-76
2023/03/27 09:49:36;;;;;;;2.35;0.50;;;8.60;99.90;;;;;;5073903;28;20040;-74
2023/03/27 09:52:02;;;;;;;1.90;0.55;;;8.50;98.80;;;;;;5079683;28;20058;-75
2023/03/27 09:54:53;;;;;;;6.28;0.88;;;8.50;99.90;;;;;;5072909;28;20543;-75
2023/03/27 09:57:19;;;;;;;3.00;0.77;;;8.30;99.90;;;;;;5069092;28;20043;-74
2023/03/27 09:59:58;;;;;;;5.10;1.27;;;8.00;99.90;;;;;;5076651;28;20040;-73
2023/03/27 10:02:29;;;;;;;2.15;0.93;;;7.60;99.90;;;;;;5094531;28;20036;-72
2023/03/27 10:05:00;;;;;;;3.67;1.23;;;8.10;99.90;;;;;;5093670;28;20036;-73
2023/03/27 10:07:26;;;;;;;1.88;0.90;;;8.70;99.90;;;;;;5061524;28;20036;-74
2023/03/27 10:10:07;;;;;;;2.80;1.27;;;8.80;68.60;;;;;;5068002;28;20207;-73
2023/03/27 10:12:34;;;;;;;2.28;0.70;;;9.20;78.20;;;;;;5061097;28;20040;-71
2023/03/27 10:15:26;;;;;;;4.05;0.70;;;8.80;42.90;;;;;;5077753;28;20347;-73
2023/03/27 10:17:52;;;;;;;4.10;0.70;;;8.80;24.30;;;;;;5111181;28;20067;-72
2023/03/27 10:20:19;;;;;;;4.43;0.80;;;9.40;39.40;;;;;;5120370;28;20021;-70
2023/03/27 10:22:54;;;;;;;2.15;0.70;;;9.20;1.00;;;;;;5099142;28;20099;-72
2023/03/27 10:25:26;;;;;;;2.88;0.98;;;8.80;1.00;;;;;;5096835;28;20636;-70
2023/03/27 10:27:52;;;;;;;2.17;0.70;;;8.70;1.00;;;;;;5097914;28;20024;-73
2023/03/27 10:30:26;;;;;;;4.10;0.95;;;9.10;1.00;;;;;;5098426;28;20032;-72
2023/03/27 10:32:51;;;;;;;4.78;0.82;;;9.20;15.40;;;;;;5098915;28;20028;-72
2023/03/27 10:35:25;;;;;;;2.35;0.80;;;8.50;1.00;;;;;;5133981;27;20241;-72
2023/03/27 10:37:54;;;;;;;2.60;0.75;;;8.80;1.00;;;;;;5122400;28;20031;-73
2023/03/27 10:40:46;;;;;;;3.20;0.90;;;9.10;1.00;;;;;;5043368;28;20071;-71
2023/03/27 10:43:17;;;;;;;5.15;1.10;;;9.40;1.00;;;;;;5074775;28;20031;-73
2023/03/27 10:45:48;;;;;;;3.33;1.00;;;9.80;1.00;;;;;;5099132;28;20106;-74
2023/03/27 10:48:30;;;;;;;2.15;0.60;;;9.70;1.00;;;;;;5083377;28;20074;-74
2023/03/27 10:51:02;;;;;;;2.60;0.82;;;9.30;1.00;;;;;;5084399;28;20101;-72
2023/03/27 10:53:47;;;;;;;4.13;1.20;;;8.90;9.20;;;;;;5078136;28;20032;-72
2023/03/27 10:56:24;;;;;;;3.42;0.68;;;8.50;15.10;;;;;;5091195;28;20041;-72
2023/03/27 10:59:13;;;;;;;2.63;0.93;;;8.20;20.40;;;;;;5089203;28;20708;-73
2023/03/27 11:01:48;;;;;;;2.70;0.77;;;8.60;27.50;;;;;;5091014;28;20051;-73
2023/03/27 11:04:20;;;;;;;5.00;0.80;;;9.10;1.00;;;;;;5093062;28;20490;-73
2023/03/27 11:06:49;;;;;;;2.38;0.57;;;9.30;1.00;;;;;;5091031;28;20184;-72
2023/03/27 11:09:28;;;;;;;4.78;0.88;;;8.90;1.00;;;;;;5075440;28;20095;-72
2023/03/27 11:12:12;;;;;;;2.95;0.50;;;8.60;1.00;;;;;;5089136;28;20330;-72
2023/03/27 11:14:52;;;;;;;1.67;0.85;;;8.30;1.00;;;;;;5083299;28;20051;-71
2023/03/27 11:17:29;;;;;;;2.28;0.90;;;8.30;1.00;;;;;;5106573;28;20333;-72
2023/03/27 11:20:05;;;;;;;7.32;1.13;;;8.20;6.20;;;;;;5090790;28;20256;-72
2023/03/27 11:22:39;;;;;;;8.55;1.10;;;8.60;61.40;;;;;;5086642;28;20036;-75
2023/03/27 11:25:31;;;;;;;4.18;1.73;;;9.00;82.90;;;;;;5096722;28;20038;-75
2023/03/27 11:28:06;;;;;;;2.95;0.63;;;9.40;37.10;;;;;;5097042;28;20036;-76
2023/03/27 11:30:40;;;;;;;;;;;8.10;99.90;;;;;;5097238;28;20115;-74
2023/03/27 11:33:34;;;;;;;5.72;0.90;;;6.60;99.90;;;;;;5089959;28;20377;-75
2023/03/27 11:36:12;;;;;;;5.63;0.90;;;6.60;99.90;;;;;;5090628;28;20024;-73
2023/03/27 11:38:44;;;;;;;3.72;0.85;;;6.70;99.90;;;;;;5116749;27;20036;-72
2023/03/27 11:41:13;;;;;;;4.93;1.25;;;6.90;99.90;;;;;;5095345;28;20067;-73
2023/03/27 11:43:39;;;;;;;3.40;1.35;;;7.00;99.90;;;;;;5083976;28;20112;-73
2023/03/27 11:46:05;;;;;;;8.57;1.10;;;7.30;99.90;;;;;;5090055;28;20032;-72
2023/03/27 11:48:40;;;;;;;3.80;0.80;;;8.00;99.90;;;;;;5083435;28;20078;-71
2023/03/27 11:51:21;;;;;;;4.32;0.90;;;8.10;99.90;;;;;;5128281;27;20339;-71
2023/03/27 11:53:53;;;;;;;5.18;0.95;;;8.30;99.90;;;;;;5080638;28;20313;-70
2023/03/27 11:56:26;;;;;;;9.63;2.65;;;8.70;99.90;;;;;;5082966;28;20040;-74
2023/03/27 11:59:04;;;;;;;3.42;1.08;;;9.20;99.90;;;;;;5083799;28;20039;-72
2023/03/27 12:01:38;;;;;;;4.10;1.23;;;8.50;5.00;;;;;;5100478;28;20269;-75
2023/03/27 12:04:08;;;;;;;2.70;0.73;;;8.40;1.00;;;;;;5093280;28;20031;-72
2023/03/27 12:06:55;;;;;;;3.83;0.75;;;8.50;47.80;;;;;;5097792;28;20043;-73
2023/03/27 12:09:42;;;;;;;2.80;0.90;;;9.00;65.20;;;;;;5097513;28;20031;-72
2023/03/27 12:12:36;;;;;;;2.53;0.70;;;8.90;1.00;;;;;;5076669;28;20034;-71
2023/03/27 12:15:11;;;;;;;4.57;1.10;;;8.70;1.00;;;;;;5094660;28;20040;-72
2023/03/27 12:17:56;;;;;;;;;;;8.50;1.00;;;;;;5089189;28;20211;-75
2023/03/27 12:20:44;;;;;;;3.93;0.93;;;8.40;1.00;;;;;;5088797;28;19955;-74
2023/03/27 12:23:47;;;;;;;3.33;0.70;;;8.40;1.00;;;;;;5090472;28;20271;-72
2023/03/27 12:26:47;;;;;;;5.03;1.00;;;8.50;1.00;;;;;;5088548;28;20081;-75
2023/03/27 12:29:30;;;;;;;5.00;0.90;;;8.30;1.00;;;;;;5082677;28;20027;-73
2023/03/27 12:31:59;;;;;;;2.72;1.00;;;7.90;1.00;;;;;;5077112;28;20064;-73
2023/03/27 12:34:51;;;;;;;3.53;0.95;;;8.20;1.00;;;;;;5123126;27;20062;-73
2023/03/27 12:37:23;;;;;;;3.17;0.60;;;8.50;1.00;;;;;;5094377;28;20036;-74
2023/03/27 12:40:27;;;;;;;3.70;1.08;;;8.90;1.00;;;;;;5087824;28;20041;-72
2023/03/27 12:43:19;;;;;;;3.70;1.02;;;9.00;1.00;;;;;;5118965;27;20024;-75
2023/03/27 12:46:23;;;;;;;1.90;0.73;;;8.90;1.00;;;;;;5087702;28;20303;-74
2023/03/27 12:49:01;;;;;;;6.13;1.38;;;8.70;1.00;;;;;;5069516;28;20059;-72
2023/03/27 12:51:38;;;;;;;2.03;1.00;;;8.60;1.00;;;;;;5077692;28;20063;-73
2023/03/27 12:54:34;;;;;;;2.20;0.52;;;8.80;1.00;;;;;;5066862;28;20044;-69
2023/03/27 12:57:21;;;;;;;4.63;0.90;;;8.60;1.00;;;;;;5100009;27;20048;-72
2023/03/27 12:59:47;;;;;;;1.45;0.60;;;9.00;1.00;;;;;;5063493;28;20158;-69
2023/03/27 13:02:34;;;;;;;1.52;0.63;;;8.80;1.00;;;;;;5092751;28;20268;-74
2023/03/27 13:05:21;;;;;;;3.33;1.00;;;8.90;1.00;;;;;;5089486;28;20301;-75
2023/03/27 13:08:06;;;;;;;3.83;1.15;;;8.50;1.00;;;;;;5077465;28;20058;-74
2023/03/27 13:11:10;;;;;;;2.33;0.70;;;8.50;1.00;;;;;;5076137;28;20104;-72
2023/03/27 13:13:44;;;;;;;6.00;1.67;;;8.90;1.00;;;;;;5086680;28;20042;-73
2023/03/27 13:16:25;;;;;;;;;;;9.30;61.20;;;;;;5074153;28;20039;-72
2023/03/27 13:18:57;;;;;;;4.63;1.08;;;9.10;1.00;;;;;;5066851;28;19916;-73
2023/03/27 13:21:47;;;;;;;7.03;1.33;;;9.30;12.20;;;;;;5075687;28;20105;-70
2023/03/27 13:24:34;;;;;;;7.57;1.40;;;9.80;90.40;;;;;;5120206;27;20028;-70
2023/03/27 13:27:41;;;;;;;3.78;1.42;;;9.70;81.60;;;;;;5077740;28;20036;-71
2023/03/27 13:30:43;;;;;;;5.97;1.00;;;9.40;10.50;;;;;;5039485;28;20028;-70
2023/03/27 13:33:34;;;;;;;2.95;1.13;;;9.00;34.00;;;;;;5057171;28;20235;-73
2023/03/27 13:36:06;;;;;;;5.00;1.10;;;8.70;55.80;;;;;;5056827;28;20047;-70
2023/03/27 13:38:53;;;;;;;7.25;1.73;;;8.50;77.90;;;;;;5097909;27;20032;-74
2023/03/27 13:41:43;;;;;;;8.77;1.63;;;8.60;99.90;;;;;;5077674;28;20095;-74
2023/03/27 13:44:38;;;;;;;12.18;1.50;;;8.50;99.90;;;;;;5102570;28;20035;-74
2023/03/27 13:47:33;;;;;;;8.40;1.70;;;8.00;99.90;;;;;;5070339;28;20032;-73
2023/03/27 13:50:23;;;;;;;7.45;1.30;;;8.80;99.90;;;;;;5092787;28;20059;-72
2023/03/27 13:53:16;;;;;;;7.00;1.13;;;9.30;99.90;;;;;;5120560;27;20036;-77
2023/03/27 13:56:08;;;;;;;2.50;0.95;;;9.60;99.90;;;;;;5110040;28;20075;-75
2023/03/27 13:58:37;;;;;;;5.82;1.48;;;9.80;98.30;;;;;;5127355;27;20028;-75
2023/03/27 14:01:39;;;;;;;5.68;1.20;;;9.80;99.90;;;;;;5079175;28;20060;-73